sensor_id;sensor_type;location;lat;lon;timestamp;temperature;humidity
36322;DHT22;23564;48.290;11.460;2024-03-08T00:01:09;1.70;23.50
36322;DHT22;23564;48.290;11.460;2024-03-08T00:03:35;1.70;33.50
36322;DHT22;23564;48.290;11.460;2024-03-08T00:06:01;1.60;29.50
36322;DHT22;23564;48.290;11.460;2024-03-08T00:08:27;1.70;29.00
36322;DHT22;23564;48.290;11.460;2024-03-08T00:10:52;1.70;26.50
36322;DHT22;23564;48.290;11.460;2024-03-08T00:13:18;1.70;27.20
36322;DHT22;23564;48.290;11.460;2024-03-08T00:15:44;1.60;30.30
36322;DHT22;23564;48.290;11.460;2024-03-08T00:18:09;1.60;31.50
36322;DHT22;23564;48.290;11.460;2024-03-08T00:20:37;1.70;30.70
36322;DHT22;23564;48.290;11.460;2024-03-08T00:23:02;1.70;26.00
36322;DHT22;23564;48.290;11.460;2024-03-08T00:25:28;1.60;26.90
36322;DHT22;23564;48.290;11.460;2024-03-08T00:27:54;1.60;27.50
36322;DHT22;23564;48.290;11.460;2024-03-08T00:30:23;1.60;28.70
36322;DHT22;23564;48.290;11.460;2024-03-08T00:32:50;1.60;26.40
36322;DHT22;23564;48.290;11.460;2024-03-08T00:35:16;1.60;25.80
36322;DHT22;23564;48.290;11.460;2024-03-08T00:37:41;1.50;24.70
36322;DHT22;23564;48.290;11.460;2024-03-08T00:40:08;1.60;25.00
36322;DHT22;23564;48.290;11.460;2024-03-08T00:42:34;1.50;23.90
36322;DHT22;23564;48.290;11.460;2024-03-08T00:45:00;1.50;26.20
36322;DHT22;23564;48.290;11.460;2024-03-08T00:47:26;1.50;28.20
36322;DHT22;23564;48.290;11.460;2024-03-08T00:49:52;1.40;30.70
36322;DHT22;23564;48.290;11.460;2024-03-08T00:52:18;1.40;35.90
36322;DHT22;23564;48.290;11.460;2024-03-08T00:54:44;1.40;35.70
36322;DHT22;23564;48.290;11.460;2024-03-08T00:57:10;1.50;32.40
36322;DHT22;23564;48.290;11.460;2024-03-08T00:59:38;1.40;30.40
36322;DHT22;23564;48.290;11.460;2024-03-08T01:02:04;1.40;28.00
36322;DHT22;23564;48.290;11.460;2024-03-08T01:04:29;1.40;27.20
36322;DHT22;23564;48.290;11.460;2024-03-08T01:06:56;1.40;30.00
36322;DHT22;23564;48.290;11.460;2024-03-08T01:09:25;1.40;30.40
36322;DHT22;23564;48.290;11.460;2024-03-08T01:11:52;1.40;28.80
36322;DHT22;23564;48.290;11.460;2024-03-08T01:14:20;1.40;27.20
36322;DHT22;23564;48.290;11.460;2024-03-08T01:16:48;1.30;30.40
36322;DHT22;23564;48.290;11.460;2024-03-08T01:19:13;1.30;32.70
36322;DHT22;23564;48.290;11.460;2024-03-08T01:21:39;1.30;32.20
36322;DHT22;23564;48.290;11.460;2024-03-08T01:24:05;1.40;31.10
36322;DHT22;23564;48.290;11.460;2024-03-08T01:26:31;1.30;28.60
36322;DHT22;23564;48.290;11.460;2024-03-08T01:28:56;1.40;31.70
36322;DHT22;23564;48.290;11.460;2024-03-08T01:31:22;1.40;31.80
36322;DHT22;23564;48.290;11.460;2024-03-08T01:33:47;1.30;38.20
36322;DHT22;23564;48.290;11.460;2024-03-08T01:36:15;1.40;30.40
36322;DHT22;23564;48.290;11.460;2024-03-08T01:38:42;1.40;33.60
36322;DHT22;23564;48.290;11.460;2024-03-08T01:41:08;1.40;32.20
36322;DHT22;23564;48.290;11.460;2024-03-08T01:43:34;1.40;33.80
36322;DHT22;23564;48.290;11.460;2024-03-08T01:46:00;1.30;36.60
36322;DHT22;23564;48.290;11.460;2024-03-08T01:48:27;1.30;38.20
36322;DHT22;23564;48.290;11.460;2024-03-08T01:50:55;1.30;36.60
36322;DHT22;23564;48.290;11.460;2024-03-08T01:53:21;1.30;37.00
36322;DHT22;23564;48.290;11.460;2024-03-08T01:55:48;1.30;36.50
36322;DHT22;23564;48.290;11.460;2024-03-08T01:58:15;1.30;39.70
36322;DHT22;23564;48.290;11.460;2024-03-08T02:00:44;1.30;41.50
36322;DHT22;23564;48.290;11.460;2024-03-08T02:03:10;1.30;35.30
36322;DHT22;23564;48.290;11.460;2024-03-08T02:05:36;1.30;38.30
36322;DHT22;23564;48.290;11.460;2024-03-08T02:08:04;1.30;36.90
36322;DHT22;23564;48.290;11.460;2024-03-08T02:10:33;1.30;39.20
36322;DHT22;23564;48.290;11.460;2024-03-08T02:13:01;1.20;39.40
36322;DHT22;23564;48.290;11.460;2024-03-08T02:15:27;1.20;38.50
36322;DHT22;23564;48.290;11.460;2024-03-08T02:18:12;1.20;39.80
36322;DHT22;23564;48.290;11.460;2024-03-08T02:20:38;1.20;44.10
36322;DHT22;23564;48.290;11.460;2024-03-08T02:23:04;1.20;41.70
36322;DHT22;23564;48.290;11.460;2024-03-08T02:25:30;1.20;42.30
36322;DHT22;23564;48.290;11.460;2024-03-08T02:27:56;1.20;39.80
36322;DHT22;23564;48.290;11.460;2024-03-08T02:30:22;1.20;40.10
36322;DHT22;23564;48.290;11.460;2024-03-08T02:32:47;1.20;39.90
36322;DHT22;23564;48.290;11.460;2024-03-08T02:35:13;1.30;43.00
36322;DHT22;23564;48.290;11.460;2024-03-08T02:37:38;1.20;43.20
36322;DHT22;23564;48.290;11.460;2024-03-08T02:40:04;1.30;42.80
36322;DHT22;23564;48.290;11.460;2024-03-08T02:42:30;1.20;40.60
36322;DHT22;23564;48.290;11.460;2024-03-08T02:44:56;1.20;43.00
36322;DHT22;23564;48.290;11.460;2024-03-08T02:47:22;1.20;45.90
36322;DHT22;23564;48.290;11.460;2024-03-08T02:49:47;1.20;51.60
36322;DHT22;23564;48.290;11.460;2024-03-08T02:52:13;1.20;47.80
36322;DHT22;23564;48.290;11.460;2024-03-08T02:54:38;1.10;46.20
36322;DHT22;23564;48.290;11.460;2024-03-08T02:57:04;1.10;49.40
36322;DHT22;23564;48.290;11.460;2024-03-08T02:59:30;1.10;50.30
36322;DHT22;23564;48.290;11.460;2024-03-08T03:01:55;1.10;48.00
36322;DHT22;23564;48.290;11.460;2024-03-08T03:04:21;1.10;50.30
36322;DHT22;23564;48.290;11.460;2024-03-08T03:06:46;1.00;51.90
36322;DHT22;23564;48.290;11.460;2024-03-08T03:09:12;1.00;56.00
36322;DHT22;23564;48.290;11.460;2024-03-08T03:11:44;1.10;54.30
36322;DHT22;23564;48.290;11.460;2024-03-08T03:14:10;1.10;50.70
36322;DHT22;23564;48.290;11.460;2024-03-08T03:16:35;1.00;51.80
36322;DHT22;23564;48.290;11.460;2024-03-08T03:19:01;1.00;53.60
36322;DHT22;23564;48.290;11.460;2024-03-08T03:21:30;1.00;54.40
36322;DHT22;23564;48.290;11.460;2024-03-08T03:23:57;1.00;57.90
36322;DHT22;23564;48.290;11.460;2024-03-08T03:26:24;1.00;59.20
36322;DHT22;23564;48.290;11.460;2024-03-08T03:28:50;1.00;58.20
36322;DHT22;23564;48.290;11.460;2024-03-08T03:31:15;1.00;57.30
36322;DHT22;23564;48.290;11.460;2024-03-08T03:33:42;1.00;61.30
36322;DHT22;23564;48.290;11.460;2024-03-08T03:36:08;1.00;56.60
36322;DHT22;23564;48.290;11.460;2024-03-08T03:38:35;1.00;52.90
36322;DHT22;23564;48.290;11.460;2024-03-08T03:41:00;0.90;55.20
36322;DHT22;23564;48.290;11.460;2024-03-08T03:43:35;0.90;57.60
36322;DHT22;23564;48.290;11.460;2024-03-08T03:46:06;0.90;56.20
36322;DHT22;23564;48.290;11.460;2024-03-08T03:48:31;0.90;57.90
36322;DHT22;23564;48.290;11.460;2024-03-08T03:50:57;0.80;62.90
36322;DHT22;23564;48.290;11.460;2024-03-08T03:53:23;0.90;63.50
36322;DHT22;23564;48.290;11.460;2024-03-08T03:55:48;0.90;59.30
36322;DHT22;23564;48.290;11.460;2024-03-08T03:58:14;0.90;56.60
36322;DHT22;23564;48.290;11.460;2024-03-08T04:00:41;0.90;59.20
36322;DHT22;23564;48.290;11.460;2024-03-08T04:03:06;0.90;59.10
36322;DHT22;23564;48.290;11.460;2024-03-08T04:05:32;0.90;59.60
36322;DHT22;23564;48.290;11.460;2024-03-08T04:07:58;0.90;63.50
36322;DHT22;23564;48.290;11.460;2024-03-08T04:10:24;0.90;64.50
36322;DHT22;23564;48.290;11.460;2024-03-08T04:12:49;0.90;64.10
36322;DHT22;23564;48.290;11.460;2024-03-08T04:15:15;0.90;62.60
36322;DHT22;23564;48.290;11.460;2024-03-08T04:17:40;0.90;63.10
36322;DHT22;23564;48.290;11.460;2024-03-08T04:20:07;0.90;64.50
36322;DHT22;23564;48.290;11.460;2024-03-08T04:22:36;0.90;63.80
36322;DHT22;23564;48.290;11.460;2024-03-08T04:25:03;0.90;65.10
36322;DHT22;23564;48.290;11.460;2024-03-08T04:27:29;1.00;66.00
36322;DHT22;23564;48.290;11.460;2024-03-08T04:29:54;1.00;67.10
36322;DHT22;23564;48.290;11.460;2024-03-08T04:32:20;1.10;65.60
36322;DHT22;23564;48.290;11.460;2024-03-08T04:34:45;1.10;66.50
36322;DHT22;23564;48.290;11.460;2024-03-08T04:37:11;1.10;66.80
36322;DHT22;23564;48.290;11.460;2024-03-08T04:39:39;1.20;66.00
36322;DHT22;23564;48.290;11.460;2024-03-08T04:42:05;1.30;65.60
36322;DHT22;23564;48.290;11.460;2024-03-08T04:44:36;1.40;62.80
36322;DHT22;23564;48.290;11.460;2024-03-08T04:47:05;1.40;61.70
36322;DHT22;23564;48.290;11.460;2024-03-08T04:49:32;1.50;59.50
36322;DHT22;23564;48.290;11.460;2024-03-08T04:52:03;1.50;56.30
36322;DHT22;23564;48.290;11.460;2024-03-08T04:54:29;1.60;57.90
36322;DHT22;23564;48.290;11.460;2024-03-08T04:56:55;1.60;56.10
36322;DHT22;23564;48.290;11.460;2024-03-08T04:59:21;1.60;51.70
36322;DHT22;23564;48.290;11.460;2024-03-08T05:01:47;1.60;48.50
36322;DHT22;23564;48.290;11.460;2024-03-08T05:04:13;1.70;47.00
36322;DHT22;23564;48.290;11.460;2024-03-08T05:06:39;1.70;47.10
36322;DHT22;23564;48.290;11.460;2024-03-08T05:09:04;1.70;45.20
36322;DHT22;23564;48.290;11.460;2024-03-08T05:11:40;1.70;43.80
36322;DHT22;23564;48.290;11.460;2024-03-08T05:14:06;1.70;40.10
36322;DHT22;23564;48.290;11.460;2024-03-08T05:16:31;1.70;41.00
36322;DHT22;23564;48.290;11.460;2024-03-08T05:18:57;1.70;36.70
36322;DHT22;23564;48.290;11.460;2024-03-08T05:21:22;1.70;37.10
36322;DHT22;23564;48.290;11.460;2024-03-08T05:23:49;1.80;42.10
36322;DHT22;23564;48.290;11.460;2024-03-08T05:26:15;1.80;42.50
36322;DHT22;23564;48.290;11.460;2024-03-08T05:28:41;1.80;40.80
36322;DHT22;23564;48.290;11.460;2024-03-08T05:31:07;1.80;36.20
36322;DHT22;23564;48.290;11.460;2024-03-08T05:33:33;1.80;34.60
36322;DHT22;23564;48.290;11.460;2024-03-08T05:36:02;1.80;30.80
36322;DHT22;23564;48.290;11.460;2024-03-08T05:38:28;1.80;27.70
36322;DHT22;23564;48.290;11.460;2024-03-08T05:40:54;1.80;35.20
36322;DHT22;23564;48.290;11.460;2024-03-08T05:43:20;1.80;34.40
36322;DHT22;23564;48.290;11.460;2024-03-08T05:45:46;1.90;33.50
36322;DHT22;23564;48.290;11.460;2024-03-08T05:48:13;1.80;30.00
36322;DHT22;23564;48.290;11.460;2024-03-08T05:50:39;1.80;31.40
36322;DHT22;23564;48.290;11.460;2024-03-08T05:53:04;1.80;31.40
36322;DHT22;23564;48.290;11.460;2024-03-08T05:55:33;1.80;32.70
36322;DHT22;23564;48.290;11.460;2024-03-08T05:58:01;1.80;34.80
36322;DHT22;23564;48.290;11.460;2024-03-08T06:00:27;1.80;27.20
36322;DHT22;23564;48.290;11.460;2024-03-08T06:02:53;1.80;30.90
36322;DHT22;23564;48.290;11.460;2024-03-08T06:05:19;1.90;32.10
36322;DHT22;23564;48.290;11.460;2024-03-08T06:07:44;1.90;36.10
36322;DHT22;23564;48.290;11.460;2024-03-08T06:10:11;2.00;31.80
36322;DHT22;23564;48.290;11.460;2024-03-08T06:12:40;2.00;28.90
36322;DHT22;23564;48.290;11.460;2024-03-08T06:15:09;2.00;29.10
36322;DHT22;23564;48.290;11.460;2024-03-08T06:17:36;2.00;25.50
36322;DHT22;23564;48.290;11.460;2024-03-08T06:20:02;2.00;21.80
36322;DHT22;23564;48.290;11.460;2024-03-08T06:22:29;2.00;25.30
36322;DHT22;23564;48.290;11.460;2024-03-08T06:24:56;2.10;21.40
36322;DHT22;23564;48.290;11.460;2024-03-08T06:27:22;2.10;22.40
36322;DHT22;23564;48.290;11.460;2024-03-08T06:29:47;2.10;19.00
36322;DHT22;23564;48.290;11.460;2024-03-08T06:32:14;2.10;19.70
36322;DHT22;23564;48.290;11.460;2024-03-08T06:34:41;2.10;14.30
36322;DHT22;23564;48.290;11.460;2024-03-08T06:37:06;2.10;14.90
36322;DHT22;23564;48.290;11.460;2024-03-08T06:39:32;2.20;13.60
36322;DHT22;23564;48.290;11.460;2024-03-08T06:41:59;2.20;12.50
36322;DHT22;23564;48.290;11.460;2024-03-08T06:44:25;2.20;9.70
36322;DHT22;23564;48.290;11.460;2024-03-08T06:46:51;2.20;5.90
36322;DHT22;23564;48.290;11.460;2024-03-08T06:49:16;2.20;5.50
36322;DHT22;23564;48.290;11.460;2024-03-08T06:51:42;2.30;9.60
36322;DHT22;23564;48.290;11.460;2024-03-08T06:54:07;2.40;7.00
36322;DHT22;23564;48.290;11.460;2024-03-08T06:56:37;2.40;1.00
36322;DHT22;23564;48.290;11.460;2024-03-08T06:59:03;2.40;1.00
36322;DHT22;23564;48.290;11.460;2024-03-08T07:01:29;2.50;1.00
36322;DHT22;23564;48.290;11.460;2024-03-08T07:04:00;2.50;1.00
36322;DHT22;23564;48.290;11.460;2024-03-08T07:06:27;2.50;1.00
36322;DHT22;23564;48.290;11.460;2024-03-08T07:08:54;2.50;1.00
36322;DHT22;23564;48.290;11.460;2024-03-08T07:11:19;2.50;1.00
36322;DHT22;23564;48.290;11.460;2024-03-08T07:13:45;2.50;1.00
36322;DHT22;23564;48.290;11.460;2024-03-08T07:16:11;2.60;1.00
36322;DHT22;23564;48.290;11.460;2024-03-08T07:18:37;2.60;1.00
36322;DHT22;23564;48.290;11.460;2024-03-08T07:21:09;2.60;1.00
36322;DHT22;23564;48.290;11.460;2024-03-08T07:23:34;2.60;1.00
36322;DHT22;23564;48.290;11.460;2024-03-08T07:26:20;2.70;1.00
36322;DHT22;23564;48.290;11.460;2024-03-08T07:28:45;2.80;1.00
36322;DHT22;23564;48.290;11.460;2024-03-08T07:31:11;2.80;1.00
36322;DHT22;23564;48.290;11.460;2024-03-08T07:33:49;2.90;1.00
36322;DHT22;23564;48.290;11.460;2024-03-08T07:36:15;3.00;1.00
36322;DHT22;23564;48.290;11.460;2024-03-08T07:38:41;3.00;1.00
36322;DHT22;23564;48.290;11.460;2024-03-08T07:41:07;3.10;1.00
36322;DHT22;23564;48.290;11.460;2024-03-08T07:43:32;3.10;1.00
36322;DHT22;23564;48.290;11.460;2024-03-08T07:45:58;3.20;1.00
36322;DHT22;23564;48.290;11.460;2024-03-08T07:48:24;3.30;1.00
36322;DHT22;23564;48.290;11.460;2024-03-08T07:50:49;3.30;1.00
36322;DHT22;23564;48.290;11.460;2024-03-08T07:53:15;3.40;1.00
36322;DHT22;23564;48.290;11.460;2024-03-08T07:55:41;3.40;1.00
36322;DHT22;23564;48.290;11.460;2024-03-08T07:58:09;3.50;1.00
36322;DHT22;23564;48.290;11.460;2024-03-08T08:00:36;3.60;1.00
36322;DHT22;23564;48.290;11.460;2024-03-08T08:03:02;3.60;1.00
36322;DHT22;23564;48.290;11.460;2024-03-08T08:05:28;3.70;1.00
36322;DHT22;23564;48.290;11.460;2024-03-08T08:07:54;3.70;1.00
36322;DHT22;23564;48.290;11.460;2024-03-08T08:10:19;3.80;1.00
36322;DHT22;23564;48.290;11.460;2024-03-08T08:12:50;3.80;1.00
36322;DHT22;23564;48.290;11.460;2024-03-08T08:15:17;3.90;1.00
36322;DHT22;23564;48.290;11.460;2024-03-08T08:17:46;3.90;1.00
36322;DHT22;23564;48.290;11.460;2024-03-08T08:20:13;4.00;1.00
36322;DHT22;23564;48.290;11.460;2024-03-08T08:22:42;4.10;1.00
36322;DHT22;23564;48.290;11.460;2024-03-08T08:25:11;4.20;1.00
36322;DHT22;23564;48.290;11.460;2024-03-08T08:27:45;4.20;99.90
36322;DHT22;23564;48.290;11.460;2024-03-08T08:30:12;4.30;99.90
36322;DHT22;23564;48.290;11.460;2024-03-08T08:32:39;4.40;99.90
36322;DHT22;23564;48.290;11.460;2024-03-08T08:35:08;4.30;99.90
36322;DHT22;23564;48.290;11.460;2024-03-08T08:37:39;4.40;99.90
36322;DHT22;23564;48.290;11.460;2024-03-08T08:40:05;4.40;99.90
36322;DHT22;23564;48.290;11.460;2024-03-08T08:42:34;4.40;99.90
36322;DHT22;23564;48.290;11.460;2024-03-08T08:44:59;4.40;99.90
36322;DHT22;23564;48.290;11.460;2024-03-08T08:47:25;4.40;99.90
36322;DHT22;23564;48.290;11.460;2024-03-08T08:49:51;4.40;99.90
36322;DHT22;23564;48.290;11.460;2024-03-08T08:52:17;4.40;99.90
36322;DHT22;23564;48.290;11.460;2024-03-08T08:54:43;4.50;99.90
36322;DHT22;23564;48.290;11.460;2024-03-08T08:57:10;4.50;99.90
36322;DHT22;23564;48.290;11.460;2024-03-08T08:59:35;4.50;99.90
36322;DHT22;23564;48.290;11.460;2024-03-08T09:02:05;4.50;99.90
36322;DHT22;23564;48.290;11.460;2024-03-08T09:04:30;4.50;99.90
36322;DHT22;23564;48.290;11.460;2024-03-08T09:06:56;4.60;99.90
36322;DHT22;23564;48.290;11.460;2024-03-08T09:09:22;4.80;99.90
36322;DHT22;23564;48.290;11.460;2024-03-08T09:11:48;4.90;99.90
36322;DHT22;23564;48.290;11.460;2024-03-08T09:14:15;5.00;99.90
36322;DHT22;23564;48.290;11.460;2024-03-08T09:16:40;5.10;99.90
36322;DHT22;23564;48.290;11.460;2024-03-08T09:19:06;5.20;99.90
36322;DHT22;23564;48.290;11.460;2024-03-08T09:21:33;5.30;67.10
36322;DHT22;23564;48.290;11.460;2024-03-08T09:24:00;5.20;1.00
36322;DHT22;23564;48.290;11.460;2024-03-08T09:26:26;5.20;1.00
36322;DHT22;23564;48.290;11.460;2024-03-08T09:28:52;5.10;1.00
36322;DHT22;23564;48.290;11.460;2024-03-08T09:31:18;5.10;99.90
36322;DHT22;23564;48.290;11.460;2024-03-08T09:33:43;5.00;14.70
36322;DHT22;23564;48.290;11.460;2024-03-08T09:36:09;4.90;73.50
36322;DHT22;23564;48.290;11.460;2024-03-08T09:38:34;4.80;99.90
36322;DHT22;23564;48.290;11.460;2024-03-08T09:41:01;4.70;99.90
36322;DHT22;23564;48.290;11.460;2024-03-08T09:43:29;4.70;99.90
36322;DHT22;23564;48.290;11.460;2024-03-08T09:45:57;4.60;99.90
36322;DHT22;23564;48.290;11.460;2024-03-08T09:48:23;4.50;99.90
36322;DHT22;23564;48.290;11.460;2024-03-08T09:50:49;4.50;99.90
36322;DHT22;23564;48.290;11.460;2024-03-08T09:53:15;4.60;99.90
36322;DHT22;23564;48.290;11.460;2024-03-08T09:55:42;4.60;99.90
36322;DHT22;23564;48.290;11.460;2024-03-08T09:58:15;4.60;99.90
36322;DHT22;23564;48.290;11.460;2024-03-08T10:01:07;4.60;99.90
36322;DHT22;23564;48.290;11.460;2024-03-08T10:03:33;4.70;99.90
36322;DHT22;23564;48.290;11.460;2024-03-08T10:06:00;4.70;99.90
36322;DHT22;23564;48.290;11.460;2024-03-08T10:08:29;4.80;99.90
36322;DHT22;23564;48.290;11.460;2024-03-08T10:10:55;4.80;99.90
36322;DHT22;23564;48.290;11.460;2024-03-08T10:13:24;4.80;99.90
36322;DHT22;23564;48.290;11.460;2024-03-08T10:15:51;4.80;99.90
36322;DHT22;23564;48.290;11.460;2024-03-08T10:18:16;4.90;99.90
36322;DHT22;23564;48.290;11.460;2024-03-08T10:20:42;4.90;99.90
36322;DHT22;23564;48.290;11.460;2024-03-08T10:23:08;5.00;99.90
36322;DHT22;23564;48.290;11.460;2024-03-08T10:25:35;5.10;99.90
36322;DHT22;23564;48.290;11.460;2024-03-08T10:28:04;5.10;99.90
36322;DHT22;23564;48.290;11.460;2024-03-08T10:30:31;5.10;99.90
36322;DHT22;23564;48.290;11.460;2024-03-08T10:32:56;5.20;99.90
36322;DHT22;23564;48.290;11.460;2024-03-08T10:35:23;5.30;77.60
36322;DHT22;23564;48.290;11.460;2024-03-08T10:37:50;5.30;99.90
36322;DHT22;23564;48.290;11.460;2024-03-08T10:40:26;5.30;99.90
36322;DHT22;23564;48.290;11.460;2024-03-08T10:42:53;5.40;99.90
36322;DHT22;23564;48.290;11.460;2024-03-08T10:45:34;5.50;99.90
36322;DHT22;23564;48.290;11.460;2024-03-08T10:48:29;5.50;99.90
36322;DHT22;23564;48.290;11.460;2024-03-08T10:50:59;5.50;99.90
36322;DHT22;23564;48.290;11.460;2024-03-08T10:53:27;5.60;99.90
36322;DHT22;23564;48.290;11.460;2024-03-08T10:55:56;5.60;99.90
36322;DHT22;23564;48.290;11.460;2024-03-08T10:58:24;5.70;99.90
36322;DHT22;23564;48.290;11.460;2024-03-08T11:00:52;5.70;90.00
36322;DHT22;23564;48.290;11.460;2024-03-08T11:06:08;5.80;99.90
36322;DHT22;23564;48.290;11.460;2024-03-08T11:08:36;5.80;7.70
36322;DHT22;23564;48.290;11.460;2024-03-08T11:11:02;5.80;99.90
36322;DHT22;23564;48.290;11.460;2024-03-08T11:13:39;5.80;1.00
36322;DHT22;23564;48.290;11.460;2024-03-08T11:16:11;5.80;34.30
36322;DHT22;23564;48.290;11.460;2024-03-08T11:18:38;5.90;1.00
36322;DHT22;23564;48.290;11.460;2024-03-08T11:21:04;6.00;1.00
36322;DHT22;23564;48.290;11.460;2024-03-08T11:23:37;6.00;1.00
36322;DHT22;23564;48.290;11.460;2024-03-08T11:26:20;6.10;1.00
36322;DHT22;23564;48.290;11.460;2024-03-08T11:28:46;6.20;99.90
36322;DHT22;23564;48.290;11.460;2024-03-08T11:33:40;6.30;99.90
36322;DHT22;23564;48.290;11.460;2024-03-08T11:36:13;6.40;99.90
36322;DHT22;23564;48.290;11.460;2024-03-08T11:38:47;6.50;1.00
36322;DHT22;23564;48.290;11.460;2024-03-08T11:41:19;6.50;99.90
36322;DHT22;23564;48.290;11.460;2024-03-08T11:43:46;6.50;99.90
36322;DHT22;23564;48.290;11.460;2024-03-08T11:46:14;6.50;99.90
36322;DHT22;23564;48.290;11.460;2024-03-08T11:48:41;6.60;99.90
36322;DHT22;23564;48.290;11.460;2024-03-08T11:51:08;6.60;99.90
36322;DHT22;23564;48.290;11.460;2024-03-08T11:53:34;6.60;99.90
36322;DHT22;23564;48.290;11.460;2024-03-08T11:56:20;6.70;99.90
36322;DHT22;23564;48.290;11.460;2024-03-08T11:58:55;6.70;99.90
36322;DHT22;23564;48.290;11.460;2024-03-08T12:01:24;6.80;99.90
36322;DHT22;23564;48.290;11.460;2024-03-08T12:03:55;6.80;1.00
36322;DHT22;23564;48.290;11.460;2024-03-08T12:06:24;6.80;1.00
36322;DHT22;23564;48.290;11.460;2024-03-08T12:08:50;6.90;99.90
36322;DHT22;23564;48.290;11.460;2024-03-08T12:11:17;6.90;99.90
36322;DHT22;23564;48.290;11.460;2024-03-08T12:13:48;7.00;99.90
36322;DHT22;23564;48.290;11.460;2024-03-08T12:16:19;7.00;99.90
36322;DHT22;23564;48.290;11.460;2024-03-08T12:18:47;7.10;1.00
36322;DHT22;23564;48.290;11.460;2024-03-08T12:21:14;7.10;66.90
36322;DHT22;23564;48.290;11.460;2024-03-08T12:23:44;7.10;28.90
36322;DHT22;23564;48.290;11.460;2024-03-08T12:28:39;7.20;99.90
36322;DHT22;23564;48.290;11.460;2024-03-08T12:31:07;7.20;23.30
36322;DHT22;23564;48.290;11.460;2024-03-08T12:33:48;7.30;99.90
36322;DHT22;23564;48.290;11.460;2024-03-08T12:36:15;7.30;87.60
36322;DHT22;23564;48.290;11.460;2024-03-08T12:38:46;7.40;99.90
36322;DHT22;23564;48.290;11.460;2024-03-08T12:41:18;7.30;99.90
36322;DHT22;23564;48.290;11.460;2024-03-08T12:43:48;7.30;99.90
36322;DHT22;23564;48.290;11.460;2024-03-08T12:46:22;7.40;1.00
36322;DHT22;23564;48.290;11.460;2024-03-08T12:48:52;7.50;99.90
36322;DHT22;23564;48.290;11.460;2024-03-08T12:51:21;7.50;99.90
36322;DHT22;23564;48.290;11.460;2024-03-08T12:53:47;7.60;1.00
36322;DHT22;23564;48.290;11.460;2024-03-08T12:56:20;7.60;1.00
36322;DHT22;23564;48.290;11.460;2024-03-08T12:58:53;7.60;1.00
36322;DHT22;23564;48.290;11.460;2024-03-08T13:01:19;7.60;99.90
36322;DHT22;23564;48.290;11.460;2024-03-08T13:03:45;7.60;1.00
36322;DHT22;23564;48.290;11.460;2024-03-08T13:06:11;7.70;99.90
36322;DHT22;23564;48.290;11.460;2024-03-08T13:08:38;7.80;99.90
36322;DHT22;23564;48.290;11.460;2024-03-08T13:11:07;7.80;99.90
36322;DHT22;23564;48.290;11.460;2024-03-08T13:13:33;7.80;99.90
36322;DHT22;23564;48.290;11.460;2024-03-08T13:16:05;7.90;99.90
36322;DHT22;23564;48.290;11.460;2024-03-08T13:18:34;7.90;99.90
36322;DHT22;23564;48.290;11.460;2024-03-08T13:21:00;8.00;99.90
36322;DHT22;23564;48.290;11.460;2024-03-08T13:23:30;8.00;92.90
36322;DHT22;23564;48.290;11.460;2024-03-08T13:25:56;8.00;1.00
36322;DHT22;23564;48.290;11.460;2024-03-08T13:28:22;8.00;1.00
36322;DHT22;23564;48.290;11.460;2024-03-08T13:30:53;8.10;1.00
36322;DHT22;23564;48.290;11.460;2024-03-08T13:33:19;8.20;99.90
36322;DHT22;23564;48.290;11.460;2024-03-08T13:35:45;8.20;99.90
36322;DHT22;23564;48.290;11.460;2024-03-08T13:38:12;8.30;99.90
36322;DHT22;23564;48.290;11.460;2024-03-08T13:40:39;8.30;99.90
36322;DHT22;23564;48.290;11.460;2024-03-08T13:43:06;8.30;99.90
36322;DHT22;23564;48.290;11.460;2024-03-08T13:45:34;8.20;99.90
36322;DHT22;23564;48.290;11.460;2024-03-08T13:48:03;8.30;99.90
36322;DHT22;23564;48.290;11.460;2024-03-08T13:50:30;8.30;99.90
36322;DHT22;23564;48.290;11.460;2024-03-08T13:52:56;8.40;99.90
36322;DHT22;23564;48.290;11.460;2024-03-08T13:55:22;8.30;99.90
36322;DHT22;23564;48.290;11.460;2024-03-08T13:57:48;8.40;99.90
36322;DHT22;23564;48.290;11.460;2024-03-08T14:00:14;8.30;99.90
36322;DHT22;23564;48.290;11.460;2024-03-08T14:02:40;8.30;99.90
36322;DHT22;23564;48.290;11.460;2024-03-08T14:05:09;8.30;99.90
36322;DHT22;23564;48.290;11.460;2024-03-08T14:07:36;8.30;99.90
36322;DHT22;23564;48.290;11.460;2024-03-08T14:10:02;8.40;99.90
36322;DHT22;23564;48.290;11.460;2024-03-08T14:12:28;8.40;99.90
36322;DHT22;23564;48.290;11.460;2024-03-08T14:14:55;8.40;99.90
36322;DHT22;23564;48.290;11.460;2024-03-08T14:17:25;8.50;99.90
36322;DHT22;23564;48.290;11.460;2024-03-08T14:19:52;8.50;99.90
36322;DHT22;23564;48.290;11.460;2024-03-08T14:22:19;8.40;99.90
36322;DHT22;23564;48.290;11.460;2024-03-08T14:24:45;8.50;99.90
36322;DHT22;23564;48.290;11.460;2024-03-08T14:27:11;8.50;99.90
36322;DHT22;23564;48.290;11.460;2024-03-08T14:29:38;8.50;99.90
36322;DHT22;23564;48.290;11.460;2024-03-08T14:32:05;8.40;99.90
36322;DHT22;23564;48.290;11.460;2024-03-08T14:34:32;8.40;99.90
36322;DHT22;23564;48.290;11.460;2024-03-08T14:36:59;8.40;99.90
36322;DHT22;23564;48.290;11.460;2024-03-08T14:39:26;8.30;97.80
36322;DHT22;23564;48.290;11.460;2024-03-08T14:41:55;8.30;94.60
36322;DHT22;23564;48.290;11.460;2024-03-08T14:44:21;8.30;83.50
36322;DHT22;23564;48.290;11.460;2024-03-08T14:46:51;8.30;95.80
36322;DHT22;23564;48.290;11.460;2024-03-08T14:49:17;8.30;61.40
36322;DHT22;23564;48.290;11.460;2024-03-08T14:51:44;8.30;71.10
36322;DHT22;23564;48.290;11.460;2024-03-08T14:54:10;8.30;57.60
36322;DHT22;23564;48.290;11.460;2024-03-08T14:56:39;8.20;53.10
36322;DHT22;23564;48.290;11.460;2024-03-08T14:59:08;8.20;46.70
36322;DHT22;23564;48.290;11.460;2024-03-08T15:01:37;8.20;42.10
36322;DHT22;23564;48.290;11.460;2024-03-08T15:04:03;8.10;74.80
36322;DHT22;23564;48.290;11.460;2024-03-08T15:06:37;8.10;92.00
36322;DHT22;23564;48.290;11.460;2024-03-08T15:09:04;8.10;99.90
36322;DHT22;23564;48.290;11.460;2024-03-08T15:11:40;8.10;99.90
36322;DHT22;23564;48.290;11.460;2024-03-08T15:14:08;8.10;99.90
36322;DHT22;23564;48.290;11.460;2024-03-08T15:16:37;8.10;99.90
36322;DHT22;23564;48.290;11.460;2024-03-08T15:19:05;8.10;99.90
36322;DHT22;23564;48.290;11.460;2024-03-08T15:21:31;8.10;99.90
36322;DHT22;23564;48.290;11.460;2024-03-08T15:23:57;8.10;99.90
36322;DHT22;23564;48.290;11.460;2024-03-08T15:26:22;8.10;99.90
36322;DHT22;23564;48.290;11.460;2024-03-08T15:28:48;8.10;99.90
36322;DHT22;23564;48.290;11.460;2024-03-08T15:31:17;8.00;99.90
36322;DHT22;23564;48.290;11.460;2024-03-08T15:33:44;8.10;99.90
36322;DHT22;23564;48.290;11.460;2024-03-08T15:36:27;8.00;99.50
36322;DHT22;23564;48.290;11.460;2024-03-08T15:38:56;8.00;99.90
36322;DHT22;23564;48.290;11.460;2024-03-08T15:41:22;8.00;99.90